sensor_id;sensor_type;location;lat;lon;timestamp;temperature;humidity
74171;DHT22;62526;50.948;6.590;2024-02-16T00:01:51;17.10;96.50
74171;DHT22;62526;50.948;6.590;2024-02-16T00:04:18;17.10;96.50
74171;DHT22;62526;50.948;6.590;2024-02-16T00:06:45;17.10;96.40
74171;DHT22;62526;50.948;6.590;2024-02-16T00:09:12;17.10;96.40
74171;DHT22;62526;50.948;6.590;2024-02-16T00:11:39;17.10;96.40
74171;DHT22;62526;50.948;6.590;2024-02-16T00:14:06;17.10;96.50
74171;DHT22;62526;50.948;6.590;2024-02-16T00:16:33;17.10;96.60
74171;DHT22;62526;50.948;6.590;2024-02-16T00:19:00;17.10;96.40
74171;DHT22;62526;50.948;6.590;2024-02-16T00:21:27;17.20;96.60
74171;DHT22;62526;50.948;6.590;2024-02-16T00:23:54;17.20;96.40
74171;DHT22;62526;50.948;6.590;2024-02-16T00:26:21;17.30;96.40
74171;DHT22;62526;50.948;6.590;2024-02-16T00:28:49;17.30;96.30
74171;DHT22;62526;50.948;6.590;2024-02-16T00:31:16;17.30;96.50
74171;DHT22;62526;50.948;6.590;2024-02-16T00:33:44;17.40;96.50
74171;DHT22;62526;50.948;6.590;2024-02-16T00:36:10;17.40;96.50
74171;DHT22;62526;50.948;6.590;2024-02-16T00:38:37;17.30;96.50
74171;DHT22;62526;50.948;6.590;2024-02-16T00:41:04;17.40;96.70
74171;DHT22;62526;50.948;6.590;2024-02-16T00:43:31;17.40;96.70
74171;DHT22;62526;50.948;6.590;2024-02-16T00:45:59;17.30;97.10
74171;DHT22;62526;50.948;6.590;2024-02-16T00:48:26;17.30;97.00
74171;DHT22;62526;50.948;6.590;2024-02-16T00:50:53;17.30;97.10
74171;DHT22;62526;50.948;6.590;2024-02-16T00:53:19;17.30;97.20
74171;DHT22;62526;50.948;6.590;2024-02-16T00:55:46;17.20;97.30
74171;DHT22;62526;50.948;6.590;2024-02-16T00:58:13;17.20;97.30
74171;DHT22;62526;50.948;6.590;2024-02-16T01:00:40;17.20;97.50
74171;DHT22;62526;50.948;6.590;2024-02-16T01:03:07;17.20;97.30
74171;DHT22;62526;50.948;6.590;2024-02-16T01:05:34;17.30;97.40
74171;DHT22;62526;50.948;6.590;2024-02-16T01:08:01;17.30;97.20
74171;DHT22;62526;50.948;6.590;2024-02-16T01:10:28;17.20;97.20
74171;DHT22;62526;50.948;6.590;2024-02-16T01:12:55;17.30;97.20
74171;DHT22;62526;50.948;6.590;2024-02-16T01:15:22;17.30;97.00
74171;DHT22;62526;50.948;6.590;2024-02-16T01:17:49;17.30;97.10
74171;DHT22;62526;50.948;6.590;2024-02-16T01:20:16;17.30;97.00
74171;DHT22;62526;50.948;6.590;2024-02-16T01:22:43;17.30;97.20
74171;DHT22;62526;50.948;6.590;2024-02-16T01:25:10;17.30;97.30
74171;DHT22;62526;50.948;6.590;2024-02-16T01:27:37;17.30;97.30
74171;DHT22;62526;50.948;6.590;2024-02-16T01:30:04;17.30;97.30
74171;DHT22;62526;50.948;6.590;2024-02-16T01:32:31;17.30;97.20
74171;DHT22;62526;50.948;6.590;2024-02-16T01:34:58;17.30;97.30
74171;DHT22;62526;50.948;6.590;2024-02-16T01:37:25;17.30;97.60
74171;DHT22;62526;50.948;6.590;2024-02-16T01:39:52;17.30;97.40
74171;DHT22;62526;50.948;6.590;2024-02-16T01:42:19;17.30;97.40
74171;DHT22;62526;50.948;6.590;2024-02-16T01:44:46;17.30;97.40
74171;DHT22;62526;50.948;6.590;2024-02-16T01:47:13;17.30;97.50
74171;DHT22;62526;50.948;6.590;2024-02-16T01:49:39;17.20;97.60
74171;DHT22;62526;50.948;6.590;2024-02-16T01:52:07;17.20;97.50
74171;DHT22;62526;50.948;6.590;2024-02-16T01:54:33;17.20;97.60
74171;DHT22;62526;50.948;6.590;2024-02-16T01:57:00;17.20;97.60
74171;DHT22;62526;50.948;6.590;2024-02-16T01:59:27;17.30;97.70
74171;DHT22;62526;50.948;6.590;2024-02-16T02:01:54;17.30;97.70
74171;DHT22;62526;50.948;6.590;2024-02-16T02:04:21;17.30;97.60
74171;DHT22;62526;50.948;6.590;2024-02-16T02:06:48;17.40;97.60
74171;DHT22;62526;50.948;6.590;2024-02-16T02:09:14;17.50;97.60
74171;DHT22;62526;50.948;6.590;2024-02-16T02:11:42;17.40;97.50
74171;DHT22;62526;50.948;6.590;2024-02-16T02:14:09;17.50;97.50
74171;DHT22;62526;50.948;6.590;2024-02-16T02:16:36;17.50;97.70
74171;DHT22;62526;50.948;6.590;2024-02-16T02:19:03;17.50;97.50
74171;DHT22;62526;50.948;6.590;2024-02-16T02:21:29;17.40;97.40
74171;DHT22;62526;50.948;6.590;2024-02-16T02:23:57;17.40;97.60
74171;DHT22;62526;50.948;6.590;2024-02-16T02:26:24;17.40;97.70
74171;DHT22;62526;50.948;6.590;2024-02-16T02:28:51;17.40;97.80
74171;DHT22;62526;50.948;6.590;2024-02-16T02:31:18;17.40;97.90
74171;DHT22;62526;50.948;6.590;2024-02-16T02:33:45;17.40;98.00
74171;DHT22;62526;50.948;6.590;2024-02-16T02:36:12;17.30;98.10
74171;DHT22;62526;50.948;6.590;2024-02-16T02:38:39;17.30;98.30
74171;DHT22;62526;50.948;6.590;2024-02-16T02:41:06;17.30;98.20
74171;DHT22;62526;50.948;6.590;2024-02-16T02:43:33;17.30;98.40
74171;DHT22;62526;50.948;6.590;2024-02-16T02:46:00;17.20;98.60
74171;DHT22;62526;50.948;6.590;2024-02-16T02:48:27;17.20;98.80
74171;DHT22;62526;50.948;6.590;2024-02-16T02:50:54;17.10;99.00
74171;DHT22;62526;50.948;6.590;2024-02-16T02:53:21;17.10;99.50
74171;DHT22;62526;50.948;6.590;2024-02-16T02:55:48;17.10;99.40
74171;DHT22;62526;50.948;6.590;2024-02-16T02:58:15;17.00;99.40
74171;DHT22;62526;50.948;6.590;2024-02-16T03:00:42;17.00;99.50
74171;DHT22;62526;50.948;6.590;2024-02-16T03:03:09;16.90;99.60
74171;DHT22;62526;50.948;6.590;2024-02-16T03:05:36;16.90;99.60
74171;DHT22;62526;50.948;6.590;2024-02-16T03:08:03;17.00;99.60
74171;DHT22;62526;50.948;6.590;2024-02-16T03:10:30;17.00;99.70
74171;DHT22;62526;50.948;6.590;2024-02-16T03:12:57;17.00;99.60
74171;DHT22;62526;50.948;6.590;2024-02-16T03:15:24;17.00;99.50
74171;DHT22;62526;50.948;6.590;2024-02-16T03:17:51;17.10;99.60
74171;DHT22;62526;50.948;6.590;2024-02-16T03:20:18;18.30;98.30
74171;DHT22;62526;50.948;6.590;2024-02-16T03:22:45;17.20;99.50
74171;DHT22;62526;50.948;6.590;2024-02-16T03:25:12;17.20;99.40
74171;DHT22;62526;50.948;6.590;2024-02-16T03:27:39;17.20;99.40
74171;DHT22;62526;50.948;6.590;2024-02-16T03:30:07;17.20;99.30
74171;DHT22;62526;50.948;6.590;2024-02-16T03:32:34;17.20;99.20
74171;DHT22;62526;50.948;6.590;2024-02-16T03:35:02;17.20;99.30
74171;DHT22;62526;50.948;6.590;2024-02-16T03:37:28;17.20;99.20
74171;DHT22;62526;50.948;6.590;2024-02-16T03:39:55;17.20;99.30
74171;DHT22;62526;50.948;6.590;2024-02-16T03:42:22;17.20;99.30
74171;DHT22;62526;50.948;6.590;2024-02-16T03:44:49;17.20;99.40
74171;DHT22;62526;50.948;6.590;2024-02-16T03:47:16;17.10;99.30
74171;DHT22;62526;50.948;6.590;2024-02-16T03:49:42;17.10;99.40
74171;DHT22;62526;50.948;6.590;2024-02-16T03:52:10;17.10;99.60
74171;DHT22;62526;50.948;6.590;2024-02-16T03:54:37;17.10;99.40
74171;DHT22;62526;50.948;6.590;2024-02-16T03:57:04;17.00;99.50
74171;DHT22;62526;50.948;6.590;2024-02-16T03:59:31;17.10;99.40
74171;DHT22;62526;50.948;6.590;2024-02-16T04:01:59;17.10;99.40
74171;DHT22;62526;50.948;6.590;2024-02-16T04:04:26;17.20;99.40
74171;DHT22;62526;50.948;6.590;2024-02-16T04:06:52;17.20;99.40
74171;DHT22;62526;50.948;6.590;2024-02-16T04:09:20;17.20;99.40
74171;DHT22;62526;50.948;6.590;2024-02-16T04:11:47;17.20;99.50
74171;DHT22;62526;50.948;6.590;2024-02-16T04:14:13;17.20;99.50
74171;DHT22;62526;50.948;6.590;2024-02-16T04:16:42;17.10;99.60
74171;DHT22;62526;50.948;6.590;2024-02-16T04:19:07;17.10;99.70
74171;DHT22;62526;50.948;6.590;2024-02-16T04:21:34;17.10;99.80
74171;DHT22;62526;50.948;6.590;2024-02-16T04:24:01;17.20;99.90
74171;DHT22;62526;50.948;6.590;2024-02-16T04:26:28;17.10;99.90
74171;DHT22;62526;50.948;6.590;2024-02-16T04:28:55;17.10;99.90
74171;DHT22;62526;50.948;6.590;2024-02-16T04:31:23;17.00;99.90
74171;DHT22;62526;50.948;6.590;2024-02-16T04:33:49;16.90;99.90
74171;DHT22;62526;50.948;6.590;2024-02-16T04:36:18;17.00;99.90
74171;DHT22;62526;50.948;6.590;2024-02-16T04:38:47;16.90;99.90
74171;DHT22;62526;50.948;6.590;2024-02-16T04:41:14;16.90;99.90
74171;DHT22;62526;50.948;6.590;2024-02-16T04:43:41;16.90;99.90
74171;DHT22;62526;50.948;6.590;2024-02-16T04:46:13;16.90;99.90
74171;DHT22;62526;50.948;6.590;2024-02-16T04:48:35;16.90;99.90
74171;DHT22;62526;50.948;6.590;2024-02-16T04:51:01;16.90;99.90
74171;DHT22;62526;50.948;6.590;2024-02-16T04:53:28;17.00;99.90
74171;DHT22;62526;50.948;6.590;2024-02-16T04:55:55;17.00;99.90
74171;DHT22;62526;50.948;6.590;2024-02-16T04:58:22;17.00;99.90
74171;DHT22;62526;50.948;6.590;2024-02-16T05:00:49;16.90;99.90
74171;DHT22;62526;50.948;6.590;2024-02-16T05:03:17;16.90;99.90
74171;DHT22;62526;50.948;6.590;2024-02-16T05:05:43;16.80;99.90
74171;DHT22;62526;50.948;6.590;2024-02-16T05:08:10;16.80;99.90
74171;DHT22;62526;50.948;6.590;2024-02-16T05:10:37;16.80;99.90
74171;DHT22;62526;50.948;6.590;2024-02-16T05:13:04;16.70;99.90
74171;DHT22;62526;50.948;6.590;2024-02-16T05:15:31;16.70;99.90
74171;DHT22;62526;50.948;6.590;2024-02-16T05:17:58;16.70;99.90
74171;DHT22;62526;50.948;6.590;2024-02-16T05:20:25;16.70;99.90
74171;DHT22;62526;50.948;6.590;2024-02-16T05:22:52;16.70;99.90
74171;DHT22;62526;50.948;6.590;2024-02-16T05:25:19;16.70;99.90
74171;DHT22;62526;50.948;6.590;2024-02-16T05:27:46;16.70;99.90
74171;DHT22;62526;50.948;6.590;2024-02-16T05:30:14;16.70;99.90
74171;DHT22;62526;50.948;6.590;2024-02-16T05:32:42;16.70;99.90
74171;DHT22;62526;50.948;6.590;2024-02-16T05:35:09;16.70;99.90
74171;DHT22;62526;50.948;6.590;2024-02-16T05:37:39;16.60;99.90
74171;DHT22;62526;50.948;6.590;2024-02-16T05:40:08;16.60;99.90
74171;DHT22;62526;50.948;6.590;2024-02-16T05:42:35;16.60;99.90
74171;DHT22;62526;50.948;6.590;2024-02-16T05:45:02;16.60;99.90
74171;DHT22;62526;50.948;6.590;2024-02-16T05:47:30;16.60;99.90
74171;DHT22;62526;50.948;6.590;2024-02-16T05:49:57;16.70;99.90
74171;DHT22;62526;50.948;6.590;2024-02-16T05:52:23;16.70;99.90
74171;DHT22;62526;50.948;6.590;2024-02-16T05:54:51;16.70;99.90
74171;DHT22;62526;50.948;6.590;2024-02-16T05:57:17;16.70;99.90
74171;DHT22;62526;50.948;6.590;2024-02-16T05:59:44;16.70;99.90
74171;DHT22;62526;50.948;6.590;2024-02-16T06:02:11;16.70;99.90
74171;DHT22;62526;50.948;6.590;2024-02-16T06:04:39;14.50;99.90
74171;DHT22;62526;50.948;6.590;2024-02-16T06:07:06;16.70;99.90
74171;DHT22;62526;50.948;6.590;2024-02-16T06:09:36;16.80;99.90
74171;DHT22;62526;50.948;6.590;2024-02-16T06:12:03;16.80;99.90
74171;DHT22;62526;50.948;6.590;2024-02-16T06:14:31;16.80;99.90
74171;DHT22;62526;50.948;6.590;2024-02-16T06:16:59;16.80;99.90
74171;DHT22;62526;50.948;6.590;2024-02-16T06:19:26;16.80;99.90
74171;DHT22;62526;50.948;6.590;2024-02-16T06:21:54;16.90;99.90
74171;DHT22;62526;50.948;6.590;2024-02-16T06:24:22;16.90;99.90
74171;DHT22;62526;50.948;6.590;2024-02-16T06:26:49;17.00;99.90
74171;DHT22;62526;50.948;6.590;2024-02-16T06:29:17;17.00;99.90
74171;DHT22;62526;50.948;6.590;2024-02-16T06:31:46;17.00;99.90
74171;DHT22;62526;50.948;6.590;2024-02-16T06:34:14;17.00;99.90
74171;DHT22;62526;50.948;6.590;2024-02-16T06:36:40;17.00;99.90
74171;DHT22;62526;50.948;6.590;2024-02-16T06:39:07;17.10;99.90
74171;DHT22;62526;50.948;6.590;2024-02-16T06:41:34;17.10;99.80
74171;DHT22;62526;50.948;6.590;2024-02-16T06:44:01;17.10;99.80
74171;DHT22;62526;50.948;6.590;2024-02-16T06:46:28;17.20;99.80
74171;DHT22;62526;50.948;6.590;2024-02-16T06:48:55;17.20;99.80
74171;DHT22;62526;50.948;6.590;2024-02-16T06:51:23;17.30;99.80
74171;DHT22;62526;50.948;6.590;2024-02-16T06:53:50;17.30;99.90
74171;DHT22;62526;50.948;6.590;2024-02-16T06:56:17;17.20;99.80
74171;DHT22;62526;50.948;6.590;2024-02-16T06:58:44;17.20;99.90
74171;DHT22;62526;50.948;6.590;2024-02-16T07:01:12;17.20;99.90
74171;DHT22;62526;50.948;6.590;2024-02-16T07:03:38;17.20;99.90
74171;DHT22;62526;50.948;6.590;2024-02-16T07:06:05;17.20;99.90
74171;DHT22;62526;50.948;6.590;2024-02-16T07:08:33;17.20;99.90
74171;DHT22;62526;50.948;6.590;2024-02-16T07:11:00;17.30;99.90
74171;DHT22;62526;50.948;6.590;2024-02-16T07:13:27;17.20;99.90
74171;DHT22;62526;50.948;6.590;2024-02-16T07:15:53;17.20;99.80
74171;DHT22;62526;50.948;6.590;2024-02-16T07:18:21;17.20;99.90
74171;DHT22;62526;50.948;6.590;2024-02-16T07:20:47;17.20;99.90
74171;DHT22;62526;50.948;6.590;2024-02-16T07:23:14;17.20;99.90
74171;DHT22;62526;50.948;6.590;2024-02-16T07:25:41;17.20;99.90
74171;DHT22;62526;50.948;6.590;2024-02-16T07:28:09;17.20;99.90
74171;DHT22;62526;50.948;6.590;2024-02-16T07:30:36;17.20;99.90
74171;DHT22;62526;50.948;6.590;2024-02-16T07:33:05;17.20;99.90
74171;DHT22;62526;50.948;6.590;2024-02-16T07:35:31;17.30;99.90
74171;DHT22;62526;50.948;6.590;2024-02-16T07:37:59;17.30;99.90
74171;DHT22;62526;50.948;6.590;2024-02-16T07:40:25;17.20;99.90
74171;DHT22;62526;50.948;6.590;2024-02-16T07:42:53;17.20;99.90
74171;DHT22;62526;50.948;6.590;2024-02-16T07:45:20;17.30;99.90
74171;DHT22;62526;50.948;6.590;2024-02-16T07:47:48;17.30;99.90
74171;DHT22;62526;50.948;6.590;2024-02-16T07:50:18;17.30;99.90
74171;DHT22;62526;50.948;6.590;2024-02-16T07:52:41;17.20;99.90
74171;DHT22;62526;50.948;6.590;2024-02-16T07:55:08;17.20;99.90
74171;DHT22;62526;50.948;6.590;2024-02-16T07:57:35;17.20;99.90
74171;DHT22;62526;50.948;6.590;2024-02-16T08:00:03;17.20;99.90
74171;DHT22;62526;50.948;6.590;2024-02-16T08:02:30;17.20;99.90
74171;DHT22;62526;50.948;6.590;2024-02-16T08:04:57;17.20;99.90
74171;DHT22;62526;50.948;6.590;2024-02-16T08:07:23;17.20;99.90
74171;DHT22;62526;50.948;6.590;2024-02-16T08:09:51;17.30;99.90
74171;DHT22;62526;50.948;6.590;2024-02-16T08:12:18;17.40;99.90
74171;DHT22;62526;50.948;6.590;2024-02-16T08:14:57;17.40;99.90
74171;DHT22;62526;50.948;6.590;2024-02-16T08:17:27;17.50;99.70
74171;DHT22;62526;50.948;6.590;2024-02-16T08:19:54;17.50;99.60
74171;DHT22;62526;50.948;6.590;2024-02-16T08:22:21;17.60;99.70
74171;DHT22;62526;50.948;6.590;2024-02-16T08:24:48;17.70;99.70
74171;DHT22;62526;50.948;6.590;2024-02-16T08:27:16;17.80;99.80
74171;DHT22;62526;50.948;6.590;2024-02-16T08:29:42;17.80;99.70
74171;DHT22;62526;50.948;6.590;2024-02-16T08:32:09;17.80;99.80
74171;DHT22;62526;50.948;6.590;2024-02-16T08:34:36;17.80;99.90
74171;DHT22;62526;50.948;6.590;2024-02-16T08:37:05;17.90;99.90
74171;DHT22;62526;50.948;6.590;2024-02-16T08:39:33;17.90;99.90
74171;DHT22;62526;50.948;6.590;2024-02-16T08:41:59;18.00;99.90
74171;DHT22;62526;50.948;6.590;2024-02-16T08:44:27;18.00;99.80
74171;DHT22;62526;50.948;6.590;2024-02-16T08:46:54;18.00;99.80
74171;DHT22;62526;50.948;6.590;2024-02-16T08:49:21;18.10;99.70
74171;DHT22;62526;50.948;6.590;2024-02-16T08:51:49;18.20;99.70
74171;DHT22;62526;50.948;6.590;2024-02-16T08:54:16;18.20;99.70
74171;DHT22;62526;50.948;6.590;2024-02-16T08:56:44;18.20;99.80
74171;DHT22;62526;50.948;6.590;2024-02-16T08:59:11;18.20;99.80
74171;DHT22;62526;50.948;6.590;2024-02-16T09:01:38;18.20;99.80
74171;DHT22;62526;50.948;6.590;2024-02-16T09:04:05;18.20;99.90
74171;DHT22;62526;50.948;6.590;2024-02-16T09:06:32;18.30;99.90
74171;DHT22;62526;50.948;6.590;2024-02-16T09:08:59;18.30;99.80
74171;DHT22;62526;50.948;6.590;2024-02-16T09:11:26;18.30;99.70
74171;DHT22;62526;50.948;6.590;2024-02-16T09:13:53;18.30;99.60
74171;DHT22;62526;50.948;6.590;2024-02-16T09:16:20;18.40;99.70
74171;DHT22;62526;50.948;6.590;2024-02-16T09:18:46;18.50;99.70
74171;DHT22;62526;50.948;6.590;2024-02-16T09:21:14;18.50;99.50
74171;DHT22;62526;50.948;6.590;2024-02-16T09:23:41;18.50;99.20
74171;DHT22;62526;50.948;6.590;2024-02-16T09:26:08;18.50;98.70
74171;DHT22;62526;50.948;6.590;2024-02-16T09:28:40;18.50;98.80
74171;DHT22;62526;50.948;6.590;2024-02-16T09:31:08;18.50;98.70
74171;DHT22;62526;50.948;6.590;2024-02-16T09:33:36;18.60;98.50
74171;DHT22;62526;50.948;6.590;2024-02-16T09:36:03;18.60;98.50
74171;DHT22;62526;50.948;6.590;2024-02-16T09:38:31;18.80;98.40
74171;DHT22;62526;50.948;6.590;2024-02-16T09:40:59;18.90;98.10
74171;DHT22;62526;50.948;6.590;2024-02-16T09:43:27;18.90;98.20
74171;DHT22;62526;50.948;6.590;2024-02-16T09:45:55;18.90;98.00
74171;DHT22;62526;50.948;6.590;2024-02-16T09:48:25;19.00;97.80
74171;DHT22;62526;50.948;6.590;2024-02-16T09:50:54;19.10;97.60
74171;DHT22;62526;50.948;6.590;2024-02-16T09:53:25;19.10;97.70
74171;DHT22;62526;50.948;6.590;2024-02-16T09:55:53;22.60;98.30
74171;DHT22;62526;50.948;6.590;2024-02-16T09:58:21;19.30;97.50
74171;DHT22;62526;50.948;6.590;2024-02-16T10:00:49;19.40;97.30
74171;DHT22;62526;50.948;6.590;2024-02-16T10:03:22;19.50;97.20
74171;DHT22;62526;50.948;6.590;2024-02-16T10:05:50;19.30;97.20
74171;DHT22;62526;50.948;6.590;2024-02-16T10:08:17;19.40;97.20
74171;DHT22;62526;50.948;6.590;2024-02-16T10:10:43;19.40;97.50
74171;DHT22;62526;50.948;6.590;2024-02-16T10:13:10;19.50;97.40
74171;DHT22;62526;50.948;6.590;2024-02-16T10:15:38;19.60;97.20
74171;DHT22;62526;50.948;6.590;2024-02-16T10:18:05;19.70;97.40
74171;DHT22;62526;50.948;6.590;2024-02-16T10:20:34;19.70;97.40
74171;DHT22;62526;50.948;6.590;2024-02-16T10:23:06;19.70;97.20
74171;DHT22;62526;50.948;6.590;2024-02-16T10:25:36;19.70;97.50
74171;DHT22;62526;50.948;6.590;2024-02-16T10:28:05;19.70;97.50
74171;DHT22;62526;50.948;6.590;2024-02-16T10:30:34;19.80;97.50
74171;DHT22;62526;50.948;6.590;2024-02-16T10:32:59;19.80;97.70
74171;DHT22;62526;50.948;6.590;2024-02-16T10:35:27;19.90;97.60
74171;DHT22;62526;50.948;6.590;2024-02-16T10:37:54;20.00;97.50
74171;DHT22;62526;50.948;6.590;2024-02-16T10:40:22;20.20;97.60
74171;DHT22;62526;50.948;6.590;2024-02-16T10:42:50;20.20;97.40
74171;DHT22;62526;50.948;6.590;2024-02-16T10:45:17;20.30;97.50
74171;DHT22;62526;50.948;6.590;2024-02-16T10:47:45;20.30;97.30
74171;DHT22;62526;50.948;6.590;2024-02-16T10:50:11;20.30;97.30
74171;DHT22;62526;50.948;6.590;2024-02-16T10:52:39;20.30;97.60
74171;DHT22;62526;50.948;6.590;2024-02-16T10:55:06;20.30;97.60
74171;DHT22;62526;50.948;6.590;2024-02-16T10:57:38;20.30;97.40
74171;DHT22;62526;50.948;6.590;2024-02-16T11:00:08;20.30;97.40
74171;DHT22;62526;50.948;6.590;2024-02-16T11:05:08;20.10;97.30
74171;DHT22;62526;50.948;6.590;2024-02-16T11:07:34;19.90;97.30
74171;DHT22;62526;50.948;6.590;2024-02-16T11:10:02;19.80;97.50
74171;DHT22;62526;50.948;6.590;2024-02-16T11:12:32;19.80;97.70
74171;DHT22;62526;50.948;6.590;2024-02-16T11:14:56;19.80;97.90
74171;DHT22;62526;50.948;6.590;2024-02-16T11:17:23;19.90;97.60
74171;DHT22;62526;50.948;6.590;2024-02-16T11:19:50;19.80;98.00
74171;DHT22;62526;50.948;6.590;2024-02-16T11:22:17;19.70;97.80
74171;DHT22;62526;50.948;6.590;2024-02-16T11:24:45;19.80;97.90
74171;DHT22;62526;50.948;6.590;2024-02-16T11:27:12;19.80;98.10
74171;DHT22;62526;50.948;6.590;2024-02-16T11:29:38;19.80;97.90
74171;DHT22;62526;50.948;6.590;2024-02-16T11:32:06;19.90;98.00
74171;DHT22;62526;50.948;6.590;2024-02-16T11:34:33;19.80;98.20
74171;DHT22;62526;50.948;6.590;2024-02-16T11:37:01;19.70;98.30
74171;DHT22;62526;50.948;6.590;2024-02-16T11:39:28;19.60;98.40
74171;DHT22;62526;50.948;6.590;2024-02-16T11:41:59;19.50;98.60
74171;DHT22;62526;50.948;6.590;2024-02-16T11:44:25;19.40;98.80
74171;DHT22;62526;50.948;6.590;2024-02-16T11:46:54;19.50;99.00
74171;DHT22;62526;50.948;6.590;2024-02-16T11:49:20;19.50;98.80
74171;DHT22;62526;50.948;6.590;2024-02-16T11:51:47;19.60;99.20
74171;DHT22;62526;50.948;6.590;2024-02-16T11:54:14;19.40;99.00
74171;DHT22;62526;50.948;6.590;2024-02-16T11:56:45;19.30;99.30
74171;DHT22;62526;50.948;6.590;2024-02-16T11:59:13;19.00;99.70
74171;DHT22;62526;50.948;6.590;2024-02-16T12:01:56;18.80;99.90
74171;DHT22;62526;50.948;6.590;2024-02-16T12:04:25;18.50;99.90
74171;DHT22;62526;50.948;6.590;2024-02-16T12:06:57;18.60;99.90
74171;DHT22;62526;50.948;6.590;2024-02-16T12:09:23;18.50;99.90
74171;DHT22;62526;50.948;6.590;2024-02-16T12:11:50;18.50;99.90
74171;DHT22;62526;50.948;6.590;2024-02-16T12:14:18;18.70;99.90
74171;DHT22;62526;50.948;6.590;2024-02-16T12:16:49;18.60;99.90
74171;DHT22;62526;50.948;6.590;2024-02-16T12:19:18;18.30;99.90
74171;DHT22;62526;50.948;6.590;2024-02-16T12:21:43;18.00;99.90
74171;DHT22;62526;50.948;6.590;2024-02-16T12:24:10;17.90;99.90
74171;DHT22;62526;50.948;6.590;2024-02-16T12:26:37;17.90;99.90
74171;DHT22;62526;50.948;6.590;2024-02-16T12:29:04;18.30;99.90
74171;DHT22;62526;50.948;6.590;2024-02-16T12:31:31;18.30;99.90
74171;DHT22;62526;50.948;6.590;2024-02-16T12:33:59;18.60;99.90
74171;DHT22;62526;50.948;6.590;2024-02-16T12:36:26;18.50;99.90
74171;DHT22;62526;50.948;6.590;2024-02-16T12:38:54;18.50;99.90
74171;DHT22;62526;50.948;6.590;2024-02-16T12:41:20;18.60;99.90
74171;DHT22;62526;50.948;6.590;2024-02-16T12:43:47;18.50;99.90
74171;DHT22;62526;50.948;6.590;2024-02-16T12:46:14;18.40;99.90
74171;DHT22;62526;50.948;6.590;2024-02-16T12:48:41;18.20;99.90
74171;DHT22;62526;50.948;6.590;2024-02-16T12:51:07;18.10;99.90
74171;DHT22;62526;50.948;6.590;2024-02-16T12:53:35;18.10;99.90
74171;DHT22;62526;50.948;6.590;2024-02-16T12:56:01;18.20;99.90
74171;DHT22;62526;50.948;6.590;2024-02-16T12:58:28;18.00;99.90
74171;DHT22;62526;50.948;6.590;2024-02-16T13:00:55;18.20;99.90
74171;DHT22;62526;50.948;6.590;2024-02-16T13:03:22;18.20;99.90
74171;DHT22;62526;50.948;6.590;2024-02-16T13:05:50;18.30;99.90
74171;DHT22;62526;50.948;6.590;2024-02-16T13:08:16;18.40;99.90
74171;DHT22;62526;50.948;6.590;2024-02-16T13:10:44;18.50;99.90
74171;DHT22;62526;50.948;6.590;2024-02-16T13:13:10;18.50;99.90
74171;DHT22;62526;50.948;6.590;2024-02-16T13:15:37;18.60;99.90
74171;DHT22;62526;50.948;6.590;2024-02-16T13:18:05;18.80;99.90
74171;DHT22;62526;50.948;6.590;2024-02-16T13:20:32;18.80;99.90
74171;DHT22;62526;50.948;6.590;2024-02-16T13:22:59;18.70;99.90
74171;DHT22;62526;50.948;6.590;2024-02-16T13:25:27;18.70;99.90
74171;DHT22;62526;50.948;6.590;2024-02-16T13:27:53;18.50;99.90
74171;DHT22;62526;50.948;6.590;2024-02-16T13:30:21;18.30;99.90
74171;DHT22;62526;50.948;6.590;2024-02-16T13:32:47;18.10;99.90
74171;DHT22;62526;50.948;6.590;2024-02-16T13:35:15;18.10;99.90
74171;DHT22;62526;50.948;6.590;2024-02-16T13:37:42;18.00;99.90
74171;DHT22;62526;50.948;6.590;2024-02-16T13:40:09;18.00;99.90
74171;DHT22;62526;50.948;6.590;2024-02-16T13:42:36;18.00;99.90
74171;DHT22;62526;50.948;6.590;2024-02-16T13:45:03;18.00;99.90
74171;DHT22;62526;50.948;6.590;2024-02-16T13:47:30;18.20;99.90
74171;DHT22;62526;50.948;6.590;2024-02-16T13:49:58;18.10;99.90
74171;DHT22;62526;50.948;6.590;2024-02-16T13:52:25;18.00;99.90
74171;DHT22;62526;50.948;6.590;2024-02-16T13:54:53;18.00;99.90
74171;DHT22;62526;50.948;6.590;2024-02-16T13:57:19;18.20;99.90
74171;DHT22;62526;50.948;6.590;2024-02-16T13:59:47;18.10;99.90
74171;DHT22;62526;50.948;6.590;2024-02-16T14:02:14;18.00;99.90
74171;DHT22;62526;50.948;6.590;2024-02-16T14:04:40;18.00;99.90
74171;DHT22;62526;50.948;6.590;2024-02-16T14:07:07;18.00;99.90
74171;DHT22;62526;50.948;6.590;2024-02-16T14:09:34;17.90;99.90
74171;DHT22;62526;50.948;6.590;2024-02-16T14:12:01;17.90;99.90
74171;DHT22;62526;50.948;6.590;2024-02-16T14:14:28;17.90;99.90
74171;DHT22;62526;50.948;6.590;2024-02-16T14:16:55;17.70;99.90
74171;DHT22;62526;50.948;6.590;2024-02-16T14:19:22;17.50;99.90
74171;DHT22;62526;50.948;6.590;2024-02-16T14:21:48;17.60;99.90
74171;DHT22;62526;50.948;6.590;2024-02-16T14:24:15;17.60;99.90
74171;DHT22;62526;50.948;6.590;2024-02-16T14:26:43;17.80;99.90
74171;DHT22;62526;50.948;6.590;2024-02-16T14:29:10;17.90;99.90
74171;DHT22;62526;50.948;6.590;2024-02-16T14:31:38;17.90;99.90
74171;DHT22;62526;50.948;6.590;2024-02-16T14:34:05;18.00;99.90
74171;DHT22;62526;50.948;6.590;2024-02-16T14:36:32;18.10;99.90
74171;DHT22;62526;50.948;6.590;2024-02-16T14:38:58;18.20;99.90
74171;DHT22;62526;50.948;6.590;2024-02-16T14:41:26;18.30;99.90
74171;DHT22;62526;50.948;6.590;2024-02-16T14:43:54;18.20;99.90
74171;DHT22;62526;50.948;6.590;2024-02-16T14:46:24;18.20;99.90
74171;DHT22;62526;50.948;6.590;2024-02-16T14:48:47;18.20;99.90
74171;DHT22;62526;50.948;6.590;2024-02-16T14:51:15;18.10;99.90
74171;DHT22;62526;50.948;6.590;2024-02-16T14:53:42;18.20;99.90
74171;DHT22;62526;50.948;6.590;2024-02-16T14:56:09;18.00;99.90
74171;DHT22;62526;50.948;6.590;2024-02-16T14:58:36;18.00;99.90
74171;DHT22;62526;50.948;6.590;2024-02-16T15:01:04;17.90;99.90
74171;DHT22;62526;50.948;6.590;2024-02-16T15:03:30;17.80;99.90
74171;DHT22;62526;50.948;6.590;2024-02-16T15:05:58;17.90;99.90
74171;DHT22;62526;50.948;6.590;2024-02-16T15:08:25;17.90;99.90
74171;DHT22;62526;50.948;6.590;2024-02-16T15:10:52;17.90;99.90
74171;DHT22;62526;50.948;6.590;2024-02-16T15:13:19;17.70;99.90
74171;DHT22;62526;50.948;6.590;2024-02-16T15:15:46;17.50;99.90
74171;DHT22;62526;50.948;6.590;2024-02-16T15:18:13;17.50;99.90
74171;DHT22;62526;50.948;6.590;2024-02-16T15:20:40;17.20;99.90
74171;DHT22;62526;50.948;6.590;2024-02-16T15:23:07;16.70;99.90
74171;DHT22;62526;50.948;6.590;2024-02-16T15:25:34;16.60;99.90
74171;DHT22;62526;50.948;6.590;2024-02-16T15:28:02;16.20;99.90
74171;DHT22;62526;50.948;6.590;2024-02-16T15:30:28;16.00;99.90
74171;DHT22;62526;50.948;6.590;2024-02-16T15:32:59;16.00;99.90